createdAt,value
2023-03-20T00:01:24.140Z,8.70
2023-03-20T00:03:51.806Z,8.70
2023-03-20T00:06:21.063Z,8.70
2023-03-20T00:08:49.575Z,8.70
2023-03-20T00:11:48.121Z,8.70
2023-03-20T00:14:17.431Z,8.70
2023-03-20T00:16:46.037Z,8.70
2023-03-20T00:19:27.837Z,8.70
2023-03-20T00:21:55.459Z,8.70
2023-03-20T00:24:23.007Z,8.60
2023-03-20T00:26:51.080Z,8.60
2023-03-20T00:29:22.839Z,8.50
2023-03-20T00:31:50.127Z,8.50
2023-03-20T00:34:23.401Z,8.50
2023-03-20T00:36:51.114Z,8.30
2023-03-20T00:39:17.702Z,8.30
2023-03-20T00:41:58.906Z,8.30
2023-03-20T00:44:36.397Z,8.30
2023-03-20T00:47:06.492Z,8.20
2023-03-20T00:49:35.053Z,8.20
2023-03-20T00:52:03.399Z,8.20
2023-03-20T00:54:30.842Z,8.20
2023-03-20T00:57:06.393Z,8.20
2023-03-20T00:59:38.007Z,8.20
2023-03-20T01:02:04.977Z,8.20
2023-03-20T01:04:38.135Z,8.20
2023-03-20T01:07:05.770Z,8.20
2023-03-20T01:09:32.471Z,8.20
2023-03-20T01:12:00.533Z,8.20
2023-03-20T01:14:27.291Z,8.20
2023-03-20T01:16:53.977Z,8.20
2023-03-20T01:19:20.683Z,8.20
2023-03-20T01:21:47.476Z,8.20
2023-03-20T01:24:14.190Z,8.20
2023-03-20T01:26:43.223Z,8.20
2023-03-20T01:29:28.014Z,8.20
2023-03-20T01:31:55.027Z,8.20
2023-03-20T01:34:21.848Z,8.10
2023-03-20T01:36:49.914Z,8.20
2023-03-20T01:39:17.863Z,8.10
2023-03-20T01:41:45.261Z,8.10
2023-03-20T01:44:27.955Z,8.20
2023-03-20T01:46:55.316Z,8.20
2023-03-20T01:49:21.839Z,8.20
2023-03-20T01:51:49.503Z,8.30
2023-03-20T01:54:27.396Z,8.30
2023-03-20T01:57:04.016Z,8.30
2023-03-20T01:59:41.318Z,8.30
2023-03-20T02:02:09.701Z,8.40
2023-03-20T02:04:41.347Z,8.40
2023-03-20T02:07:09.385Z,8.40
2023-03-20T02:09:36.122Z,8.40
2023-03-20T02:12:03.710Z,8.40
2023-03-20T02:14:31.764Z,8.40
2023-03-20T02:16:58.624Z,8.50
2023-03-20T02:19:36.139Z,8.50
2023-03-20T02:22:25.832Z,8.40
2023-03-20T02:25:17.047Z,8.40
2023-03-20T02:28:08.915Z,8.40
2023-03-20T02:31:06.034Z,8.40
2023-03-20T02:34:03.859Z,8.40
2023-03-20T02:36:59.029Z,8.40
2023-03-20T02:39:57.400Z,8.40
2023-03-20T02:42:39.304Z,8.40
2023-03-20T02:45:25.273Z,8.40
2023-03-20T02:48:11.973Z,8.40
2023-03-20T02:50:56.198Z,8.40
2023-03-20T02:53:46.062Z,8.40
2023-03-20T02:56:25.038Z,8.40
2023-03-20T02:59:04.836Z,8.40
2023-03-20T03:01:43.811Z,8.40
2023-03-20T03:04:22.016Z,8.30
2023-03-20T03:06:52.552Z,8.30
2023-03-20T03:09:22.489Z,8.30
2023-03-20T03:11:57.241Z,8.30
2023-03-20T03:14:48.973Z,8.30
2023-03-20T03:17:18.098Z,8.30
2023-03-20T03:19:51.132Z,8.30
2023-03-20T03:22:18.362Z,8.30
2023-03-20T03:24:47.332Z,8.30
2023-03-20T03:27:18.106Z,8.30
2023-03-20T03:29:49.451Z,8.30
2023-03-20T03:32:48.645Z,8.30
2023-03-20T03:35:21.295Z,8.30
2023-03-20T03:38:16.704Z,8.30
2023-03-20T03:41:20.502Z,8.30
2023-03-20T03:44:04.772Z,8.30
2023-03-20T03:47:10.733Z,8.30
2023-03-20T03:49:42.583Z,8.30
2023-03-20T03:52:17.939Z,8.30
2023-03-20T03:54:55.553Z,8.20
2023-03-20T03:57:29.318Z,8.20
2023-03-20T03:59:58.894Z,8.10
2023-03-20T04:02:26.251Z,8.20
2023-03-20T04:04:55.150Z,8.10
2023-03-20T04:07:21.841Z,8.10
2023-03-20T04:09:48.470Z,8.10
2023-03-20T04:12:35.299Z,8.20
2023-03-20T04:15:03.474Z,8.10
2023-03-20T04:17:30.529Z,8.10
2023-03-20T04:19:57.410Z,8.10
2023-03-20T04:22:24.020Z,8.10
2023-03-20T04:24:51.165Z,8.10
2023-03-20T04:27:17.905Z,8.10
2023-03-20T04:29:44.555Z,8.10
2023-03-20T04:32:11.541Z,8.00
2023-03-20T04:34:38.102Z,8.00
2023-03-20T04:37:07.787Z,7.90
2023-03-20T04:39:35.646Z,7.90
2023-03-20T04:42:02.965Z,7.80
2023-03-20T04:44:29.600Z,7.70
2023-03-20T04:46:56.278Z,7.70
2023-03-20T04:49:23.123Z,7.70
2023-03-20T04:51:49.857Z,7.70
2023-03-20T04:54:16.778Z,7.70
2023-03-20T04:56:43.420Z,7.70
2023-03-20T04:59:10.234Z,7.70
2023-03-20T05:01:36.845Z,7.70
2023-03-20T05:04:03.486Z,7.80
2023-03-20T05:06:31.635Z,7.80
2023-03-20T05:08:59.417Z,7.80
2023-03-20T05:11:27.017Z,7.80
2023-03-20T05:13:53.845Z,7.80
2023-03-20T05:16:20.568Z,7.90
2023-03-20T05:18:47.244Z,7.90
2023-03-20T05:21:13.784Z,7.90
2023-03-20T05:23:40.602Z,7.90
2023-03-20T05:26:07.489Z,7.90
2023-03-20T05:28:34.066Z,7.90
2023-03-20T05:31:00.690Z,7.90
2023-03-20T05:33:27.360Z,7.90
2023-03-20T05:35:53.983Z,7.90
2023-03-20T05:38:22.711Z,8.00
2023-03-20T05:40:50.224Z,8.00
2023-03-20T05:43:16.901Z,8.00
2023-03-20T05:45:43.730Z,8.00
2023-03-20T05:48:10.289Z,8.00
2023-03-20T05:50:36.846Z,8.10
2023-03-20T05:53:03.408Z,8.10
2023-03-20T05:55:29.965Z,8.10
2023-03-20T05:57:56.529Z,8.20
2023-03-20T06:00:23.681Z,8.20
2023-03-20T06:02:50.320Z,8.20
2023-03-20T06:05:17.192Z,8.30
2023-03-20T06:07:44.026Z,8.30
2023-03-20T06:10:11.266Z,8.30
2023-03-20T06:12:37.848Z,8.30
2023-03-20T06:15:05.338Z,8.40
2023-03-20T06:17:31.922Z,8.40
2023-03-20T06:19:58.506Z,8.50
2023-03-20T06:22:25.208Z,8.60
2023-03-20T06:24:51.937Z,8.60
2023-03-20T06:27:18.552Z,8.60
2023-03-20T06:29:45.084Z,8.70
2023-03-20T06:32:14.573Z,8.80
2023-03-20T06:34:41.270Z,8.90
2023-03-20T06:37:07.862Z,8.90
2023-03-20T06:39:34.433Z,9.00
2023-03-20T06:54:16.882Z,9.80
2023-03-20T06:56:43.435Z,9.90
2023-03-20T06:59:09.996Z,9.90
2023-03-20T07:01:36.869Z,10.00
2023-03-20T07:04:03.495Z,10.20
2023-03-20T07:08:57.136Z,10.70
2023-03-20T07:11:23.803Z,11.10
2023-03-20T07:13:50.357Z,11.30
2023-03-20T07:18:44.560Z,11.40
2023-03-20T07:21:16.322Z,11.40
2023-03-20T07:23:42.898Z,11.40
2023-03-20T07:26:09.751Z,11.10
2023-03-20T07:28:36.494Z,10.90
2023-03-20T07:31:03.204Z,10.60
2023-03-20T07:33:29.862Z,10.40
2023-03-20T07:35:56.538Z,10.40
2023-03-20T07:38:23.687Z,10.60
2023-03-20T07:40:50.310Z,10.70
2023-03-20T07:43:17.460Z,10.90
2023-03-20T07:45:44.097Z,11.10
2023-03-20T07:48:10.984Z,11.10
2023-03-20T07:50:37.791Z,11.10
2023-03-20T07:53:04.396Z,11.10
2023-03-20T07:55:31.062Z,11.20
2023-03-20T07:57:57.691Z,11.30
2023-03-20T08:00:25.611Z,11.30
2023-03-20T08:02:54.062Z,11.30
2023-03-20T08:05:21.049Z,11.40
2023-03-20T08:07:47.641Z,11.50
2023-03-20T08:10:14.314Z,11.50
2023-03-20T08:12:41.229Z,11.40
2023-03-20T08:15:08.407Z,11.20
2023-03-20T08:17:35.024Z,11.10
2023-03-20T08:20:01.689Z,11.00
2023-03-20T08:22:28.337Z,10.90
2023-03-20T08:24:54.967Z,10.90
2023-03-20T08:27:21.528Z,11.10
2023-03-20T08:29:48.088Z,11.40
2023-03-20T08:32:14.637Z,11.60
2023-03-20T08:34:41.480Z,11.70
2023-03-20T08:37:08.120Z,11.90
2023-03-20T08:39:35.737Z,12.00
2023-03-20T08:42:02.421Z,12.10
2023-03-20T08:44:29.132Z,12.20
2023-03-20T08:46:56.444Z,12.20
2023-03-20T08:49:23.349Z,12.30
2023-03-20T08:51:50.072Z,12.40
2023-03-20T08:54:18.373Z,12.40
2023-03-20T08:56:45.930Z,12.50
2023-03-20T08:59:12.671Z,12.40
2023-03-20T09:01:49.291Z,12.50
2023-03-20T09:04:17.126Z,12.60
2023-03-20T09:06:43.711Z,12.80
2023-03-20T09:46:52.292Z,14.70
2023-03-20T09:49:30.973Z,14.60
2023-03-20T09:52:15.876Z,14.70
2023-03-20T09:54:54.128Z,14.60
2023-03-20T09:57:27.754Z,14.80
2023-03-20T10:00:02.841Z,14.70
2023-03-20T10:02:58.236Z,14.80
2023-03-20T10:05:31.750Z,14.60
2023-03-20T10:08:02.040Z,14.20
2023-03-20T10:10:48.760Z,13.70
2023-03-20T10:18:37.757Z,12.50
2023-03-20T10:21:24.183Z,12.50
2023-03-20T10:24:02.484Z,12.50
2023-03-20T10:26:31.002Z,12.30
2023-03-20T10:28:59.989Z,12.30
2023-03-20T10:31:49.489Z,12.30
2023-03-20T10:34:43.097Z,12.40
2023-03-20T10:37:31.276Z,12.60
2023-03-20T10:40:30.057Z,12.70
2023-03-20T10:43:01.402Z,12.80
2023-03-20T10:45:46.290Z,12.90
2023-03-20T10:48:38.420Z,12.90
2023-03-20T10:51:06.928Z,12.70
2023-03-20T10:53:47.424Z,13.00
2023-03-20T10:56:23.090Z,12.60
2023-03-20T10:58:57.432Z,13.10
2023-03-20T11:01:24.136Z,13.00
2023-03-20T11:03:50.792Z,13.20
2023-03-20T11:06:22.847Z,13.10
2023-03-20T11:08:52.067Z,12.90
2023-03-20T11:11:27.918Z,12.80
2023-03-20T11:13:54.932Z,12.90
2023-03-20T11:16:32.915Z,12.90
2023-03-20T11:19:07.036Z,12.80
2023-03-20T11:21:37.028Z,12.80
2023-03-20T11:24:04.671Z,12.50
2023-03-20T11:26:39.749Z,12.70
2023-03-20T11:29:13.766Z,12.80
2023-03-20T11:31:41.337Z,13.00
2023-03-20T11:34:31.031Z,12.90
2023-03-20T11:37:09.661Z,13.00
2023-03-20T11:39:38.226Z,12.70
2023-03-20T11:42:25.035Z,12.60
2023-03-20T11:45:03.708Z,12.60
2023-03-20T11:47:34.015Z,12.60
2023-03-20T11:50:03.509Z,12.80
2023-03-20T11:52:39.216Z,13.20
2023-03-20T11:55:23.770Z,13.50
2023-03-20T11:57:50.743Z,13.70
2023-03-20T12:00:22.611Z,14.20
2023-03-20T12:02:49.846Z,14.20
2023-03-20T12:05:36.353Z,14.40
2023-03-20T12:08:26.406Z,14.10
2023-03-20T12:11:01.110Z,13.90
2023-03-20T12:13:36.381Z,13.70
2023-03-20T12:16:06.978Z,13.20
2023-03-20T12:18:47.758Z,13.10
2023-03-20T12:21:39.018Z,13.60
2023-03-20T12:24:29.728Z,13.20
2023-03-20T12:27:21.106Z,13.60
2023-03-20T12:29:54.451Z,14.00
2023-03-20T12:32:30.940Z,14.00
2023-03-20T12:35:10.202Z,14.10
2023-03-20T12:37:36.950Z,13.90
2023-03-20T12:40:04.433Z,13.80
2023-03-20T12:43:05.409Z,14.00
2023-03-20T12:45:51.112Z,13.70
2023-03-20T12:48:44.729Z,13.50
2023-03-20T12:51:15.248Z,13.20
2023-03-20T12:53:59.824Z,13.30
2023-03-20T12:56:36.387Z,13.50
2023-03-20T12:59:26.621Z,13.60
2023-03-20T13:01:59.050Z,14.00
2023-03-20T13:04:52.753Z,14.40
2023-03-20T14:04:27.563Z,14.20
2023-03-20T14:06:56.758Z,14.20
2023-03-20T14:09:35.666Z,14.40
2023-03-20T14:12:09.203Z,14.20
2023-03-20T14:14:53.265Z,14.50
2023-03-20T14:17:30.986Z,14.70
2023-03-20T14:20:09.313Z,14.90
2023-03-20T14:22:39.045Z,14.70
2023-03-20T14:25:08.909Z,14.70
2023-03-20T14:27:52.880Z,15.00
2023-03-20T14:30:38.735Z,15.00
2023-03-20T14:33:24.386Z,15.10
2023-03-20T14:36:12.521Z,15.30
2023-03-20T14:39:16.403Z,15.40
2023-03-20T14:41:55.396Z,15.30
2023-03-20T14:44:33.908Z,15.00
2023-03-20T14:47:31.634Z,14.70
2023-03-20T14:50:07.078Z,14.70
2023-03-20T14:52:59.059Z,14.70
2023-03-20T14:55:27.686Z,14.50
2023-03-20T14:57:57.307Z,14.40
2023-03-20T15:00:30.045Z,14.40
2023-03-20T15:03:16.234Z,14.20
2023-03-20T15:05:43.815Z,14.20
2023-03-20T15:08:24.052Z,14.10
2023-03-20T15:10:58.635Z,14.00
2023-03-20T15:13:26.170Z,14.10
2023-03-20T15:15:54.354Z,14.00
2023-03-20T15:18:22.584Z,13.90
2023-03-20T15:20:49.437Z,14.00
2023-03-20T15:23:16.054Z,13.80
2023-03-20T15:25:47.860Z,13.90
2023-03-20T15:28:26.159Z,13.80
2023-03-20T15:30:56.232Z,13.70
2023-03-20T15:33:33.660Z,13.60
2023-03-20T15:36:18.024Z,13.70
2023-03-20T15:38:46.753Z,13.70
2023-03-20T15:41:29.298Z,13.50
2023-03-20T15:44:18.954Z,13.50
2023-03-20T15:47:11.239Z,13.60
2023-03-20T15:49:41.712Z,13.50
2023-03-20T15:52:32.510Z,13.50
2023-03-20T15:55:02.756Z,13.50
2023-03-20T15:57:38.696Z,13.40
2023-03-20T16:00:13.056Z,13.30
2023-03-20T16:02:40.597Z,13.30
2023-03-20T16:05:15.462Z,13.20
2023-03-20T16:07:42.520Z,13.30
2023-03-20T16:10:36.397Z,13.40
2023-03-20T16:13:05.681Z,13.30
2023-03-20T16:15:33.923Z,13.40
2023-03-20T16:18:05.289Z,13.40
2023-03-20T16:20:40.412Z,13.20
2023-03-20T16:23:09.042Z,13.10
2023-03-20T16:25:36.916Z,13.10
2023-03-20T16:43:30.180Z,12.80
2023-03-20T16:46:03.647Z,12.70
2023-03-20T16:48:37.670Z,12.50
2023-03-20T16:51:31.162Z,12.50
2023-03-20T16:54:03.994Z,12.30
2023-03-20T16:56:36.893Z,12.20
2023-03-20T16:59:16.435Z,12.00
2023-03-20T17:01:44.954Z,11.90
2023-03-20T17:04:18.823Z,11.90
2023-03-20T17:07:13.627Z,11.70
2023-03-20T17:09:54.560Z,11.60
2023-03-20T17:12:24.068Z,11.50
2023-03-20T17:14:50.646Z,11.60
2023-03-20T17:17:22.199Z,11.50
2023-03-20T17:19:50.151Z,11.30
2023-03-20T17:22:19.996Z,11.30
2023-03-20T17:24:46.704Z,11.30
2023-03-20T17:27:14.345Z,11.20
2023-03-20T17:29:41.527Z,11.20
2023-03-20T17:32:20.215Z,11.20
2023-03-20T17:34:46.765Z,11.10
2023-03-20T17:37:16.336Z,11.10
2023-03-20T17:39:43.286Z,11.10
2023-03-20T17:42:22.231Z,11.00
2023-03-20T17:44:49.259Z,11.00
2023-03-20T17:47:18.946Z,11.00
2023-03-20T17:49:46.109Z,11.00
2023-03-20T17:52:18.462Z,10.90
2023-03-20T17:54:46.458Z,10.90
2023-03-20T17:57:33.791Z,10.80
2023-03-20T18:00:01.689Z,10.80
2023-03-20T18:02:28.357Z,10.70
2023-03-20T18:04:54.970Z,10.70
2023-03-20T18:07:22.138Z,10.70
2023-03-20T18:09:51.495Z,10.70
2023-03-20T18:12:19.107Z,10.70
2023-03-20T18:14:46.105Z,10.70
2023-03-20T18:17:14.239Z,10.60
2023-03-20T18:19:41.125Z,10.70
2023-03-20T18:22:07.895Z,10.70
2023-03-20T18:24:34.937Z,10.70
2023-03-20T18:27:01.804Z,10.60
2023-03-20T18:29:28.705Z,10.60
2023-03-20T18:31:55.273Z,10.60
2023-03-20T18:34:21.906Z,10.60
2023-03-20T18:36:48.476Z,10.60
2023-03-20T18:39:21.560Z,10.60
2023-03-20T18:41:48.227Z,10.70
2023-03-20T18:44:15.458Z,10.60
2023-03-20T18:46:43.051Z,10.60
2023-03-20T18:49:17.376Z,10.50
2023-03-20T18:51:45.143Z,10.50
2023-03-20T18:54:11.796Z,10.50
2023-03-20T18:56:38.433Z,10.60
2023-03-20T18:59:07.726Z,10.50
2023-03-20T19:01:35.792Z,10.50
2023-03-20T19:04:02.641Z,10.50
2023-03-20T19:06:32.327Z,10.40
2023-03-20T19:08:59.327Z,10.40
2023-03-20T19:11:26.246Z,10.40
2023-03-20T19:13:53.716Z,10.40
2023-03-20T19:16:24.804Z,10.30
2023-03-20T19:18:56.404Z,10.30
2023-03-20T19:21:26.146Z,10.30
2023-03-20T19:23:54.736Z,10.30
2023-03-20T19:26:24.378Z,10.30
2023-03-20T19:28:51.352Z,10.30
2023-03-20T19:31:18.077Z,10.30
2023-03-20T19:33:44.891Z,10.20
2023-03-20T19:36:31.698Z,10.10
2023-03-20T19:39:00.747Z,10.30
2023-03-20T19:41:28.888Z,10.20
2023-03-20T19:43:57.026Z,10.20
2023-03-20T19:46:42.052Z,10.10
2023-03-20T19:49:19.641Z,10.10
2023-03-20T19:51:47.872Z,10.00
2023-03-20T19:54:14.507Z,10.10
2023-03-20T19:56:41.438Z,10.10
2023-03-20T19:59:08.438Z,10.10
2023-03-20T20:01:36.159Z,10.00
2023-03-20T20:04:02.959Z,10.10
2023-03-20T20:06:32.262Z,10.00
2023-03-20T20:09:00.952Z,10.00
2023-03-20T20:11:27.841Z,10.00
2023-03-20T20:14:13.419Z,10.10
2023-03-20T20:16:42.852Z,10.00
2023-03-20T20:19:09.838Z,10.00
2023-03-20T20:22:17.293Z,10.00
2023-03-20T20:24:23.176Z,9.90
2023-03-20T20:27:03.474Z,10.00
2023-03-20T20:29:37.818Z,10.00
2023-03-20T20:32:04.718Z,10.00
2023-03-20T20:38:09.109Z,9.80
2023-03-20T20:40:05.986Z,9.80
2023-03-20T20:42:32.607Z,9.80
2023-03-20T20:44:59.212Z,9.80
2023-03-20T20:47:25.862Z,9.80
2023-03-20T20:49:52.451Z,9.80
2023-03-20T20:52:19.062Z,9.80
2023-03-20T20:54:45.748Z,9.80
2023-03-20T20:57:12.619Z,9.90
2023-03-20T20:59:40.551Z,9.90
2023-03-20T21:02:11.510Z,9.90
2023-03-20T21:04:39.605Z,10.00
2023-03-20T21:07:10.404Z,10.00
2023-03-20T21:09:38.070Z,10.00
2023-03-20T21:12:05.387Z,10.00
2023-03-20T21:14:32.374Z,10.00
2023-03-20T21:17:01.728Z,10.00
2023-03-20T21:19:35.901Z,10.00
2023-03-20T21:22:02.735Z,10.00
2023-03-20T21:24:33.778Z,10.00
2023-03-20T21:27:06.803Z,10.00
2023-03-20T21:29:34.156Z,9.90
2023-03-20T21:32:00.899Z,9.90
2023-03-20T21:34:28.959Z,9.90
2023-03-20T21:36:57.456Z,9.80
2023-03-20T21:39:26.235Z,9.70
2023-03-20T21:41:52.809Z,9.70
2023-03-20T21:44:46.117Z,9.60
2023-03-20T21:53:16.894Z,9.50
2023-03-20T22:01:39.791Z,9.40
2023-03-20T22:07:26.477Z,9.40
2023-03-20T22:24:05.708Z,9.30
2023-03-20T22:35:22.430Z,9.30
2023-03-20T22:43:15.496Z,9.30
2023-03-20T22:45:38.472Z,9.30
2023-03-20T22:48:11.576Z,9.20
2023-03-20T22:50:39.749Z,9.20
2023-03-20T22:53:06.335Z,9.20
2023-03-20T22:55:33.081Z,9.20
2023-03-20T22:58:06.943Z,9.20
2023-03-20T23:00:35.612Z,9.10
2023-03-20T23:03:17.158Z,9.20
2023-03-20T23:05:49.783Z,9.20
2023-03-20T23:08:16.669Z,9.20
2023-03-20T23:10:44.940Z,9.20
2023-03-20T23:13:12.521Z,9.20
2023-03-20T23:15:39.333Z,9.20
2023-03-20T23:18:06.394Z,9.20
2023-03-20T23:20:33.395Z,9.20
2023-03-20T23:23:00.208Z,9.20
2023-03-20T23:25:38.151Z,9.20
2023-03-20T23:28:08.688Z,9.20
2023-03-20T23:30:46.706Z,9.20
2023-03-20T23:33:18.257Z,9.20
2023-03-20T23:35:44.933Z,9.20
2023-03-20T23:38:11.572Z,9.20
2023-03-20T23:40:38.321Z,9.20
2023-03-20T23:43:05.102Z,9.20
2023-03-20T23:45:31.747Z,9.20
2023-03-20T23:47:58.352Z,9.20
2023-03-20T23:50:31.877Z,9.20
2023-03-20T23:53:13.642Z,9.10
2023-03-20T23:55:47.252Z,9.10
2023-03-20T23:58:14.531Z,9.10
